sensor_id;sensor_type;location;lat;lon;timestamp;pressure;altitude;pressure_sealevel;temperature;humidity
15998;BME280;8103;51.340;12.326;2023-04-26T00:01:32;100229.59;;;7.32;69.91
15998;BME280;8103;51.340;12.326;2023-04-26T00:04:01;100233.91;;;7.33;69.73
15998;BME280;8103;51.340;12.326;2023-04-26T00:06:28;100227.97;;;7.31;69.79
15998;BME280;8103;51.340;12.326;2023-04-26T00:08:55;100232.13;;;7.27;69.59
15998;BME280;8103;51.340;12.326;2023-04-26T00:11:22;100232.59;;;7.24;69.85
15998;BME280;8103;51.340;12.326;2023-04-26T00:13:49;100234.66;;;7.22;69.75
15998;BME280;8103;51.340;12.326;2023-04-26T00:16:17;100239.22;;;7.21;69.27
15998;BME280;8103;51.340;12.326;2023-04-26T00:18:44;100235.13;;;7.19;69.08
15998;BME280;8103;51.340;12.326;2023-04-26T00:21:12;100238.84;;;7.18;69.78
15998;BME280;8103;51.340;12.326;2023-04-26T00:23:39;100233.97;;;7.15;69.44
15998;BME280;8103;51.340;12.326;2023-04-26T00:26:06;100239.66;;;7.18;69.31
15998;BME280;8103;51.340;12.326;2023-04-26T00:28:33;100231.44;;;7.20;69.29
15998;BME280;8103;51.340;12.326;2023-04-26T00:31:00;100238.97;;;7.23;69.13
15998;BME280;8103;51.340;12.326;2023-04-26T00:33:28;100241.19;;;7.26;68.84
15998;BME280;8103;51.340;12.326;2023-04-26T00:35:58;100240.72;;;7.29;68.90
15998;BME280;8103;51.340;12.326;2023-04-26T00:38:25;100243.97;;;7.31;68.90
15998;BME280;8103;51.340;12.326;2023-04-26T00:40:52;100243.97;;;7.31;69.18
15998;BME280;8103;51.340;12.326;2023-04-26T00:43:19;100244.19;;;7.29;69.32
15998;BME280;8103;51.340;12.326;2023-04-26T00:45:46;100246.63;;;7.31;68.79
15998;BME280;8103;51.340;12.326;2023-04-26T00:48:14;100247.09;;;7.28;69.08
15998;BME280;8103;51.340;12.326;2023-04-26T00:50:41;100253.69;;;7.25;69.08
15998;BME280;8103;51.340;12.326;2023-04-26T00:53:09;100253.94;;;7.24;69.48
15998;BME280;8103;51.340;12.326;2023-04-26T00:55:36;100253.94;;;7.24;69.72
15998;BME280;8103;51.340;12.326;2023-04-26T00:58:03;100254.53;;;7.26;69.85
15998;BME280;8103;51.340;12.326;2023-04-26T01:00:30;100249.41;;;7.24;69.82
15998;BME280;8103;51.340;12.326;2023-04-26T01:02:57;100260.88;;;7.25;69.43
15998;BME280;8103;51.340;12.326;2023-04-26T01:05:25;100260.88;;;7.25;69.73
15998;BME280;8103;51.340;12.326;2023-04-26T01:07:52;100265.88;;;7.21;69.29
15998;BME280;8103;51.340;12.326;2023-04-26T01:10:20;100255.88;;;7.17;69.66
15998;BME280;8103;51.340;12.326;2023-04-26T01:12:47;100268.50;;;7.10;69.58
15998;BME280;8103;51.340;12.326;2023-04-26T01:15:14;100271.47;;;7.02;70.50
15998;BME280;8103;51.340;12.326;2023-04-26T01:17:45;100274.00;;;6.97;70.48
15998;BME280;8103;51.340;12.326;2023-04-26T01:20:15;100269.59;;;6.91;70.25
15998;BME280;8103;51.340;12.326;2023-04-26T01:22:42;100266.78;;;6.86;70.41
15998;BME280;8103;51.340;12.326;2023-04-26T01:25:12;100272.19;;;6.79;71.06
15998;BME280;8103;51.340;12.326;2023-04-26T01:27:39;100271.47;;;6.72;71.45
15998;BME280;8103;51.340;12.326;2023-04-26T01:30:08;100267.19;;;6.71;70.93
15998;BME280;8103;51.340;12.326;2023-04-26T01:32:36;100269.03;;;6.71;71.74
15998;BME280;8103;51.340;12.326;2023-04-26T01:35:03;100272.88;;;6.75;71.91
15998;BME280;8103;51.340;12.326;2023-04-26T01:37:31;100271.72;;;6.71;72.09
15998;BME280;8103;51.340;12.326;2023-04-26T01:39:58;100276.47;;;6.69;72.35
15998;BME280;8103;51.340;12.326;2023-04-26T01:42:26;100266.25;;;6.66;72.77
15998;BME280;8103;51.340;12.326;2023-04-26T01:44:52;100268.75;;;6.61;72.76
15998;BME280;8103;51.340;12.326;2023-04-26T01:47:19;100267.00;;;6.54;73.02
15998;BME280;8103;51.340;12.326;2023-04-26T01:49:46;100278.31;;;6.50;73.56
15998;BME280;8103;51.340;12.326;2023-04-26T01:52:13;100272.03;;;6.44;73.60
15998;BME280;8103;51.340;12.326;2023-04-26T01:54:39;100268.22;;;6.40;73.98
15998;BME280;8103;51.340;12.326;2023-04-26T01:57:07;100279.75;;;6.34;74.58
15998;BME280;8103;51.340;12.326;2023-04-26T01:59:34;100273.25;;;6.30;74.04
15998;BME280;8103;51.340;12.326;2023-04-26T02:02:01;100270.41;;;6.25;74.15
15998;BME280;8103;51.340;12.326;2023-04-26T02:04:28;100274.56;;;6.21;74.70
15998;BME280;8103;51.340;12.326;2023-04-26T02:06:55;100269.91;;;6.17;74.09
15998;BME280;8103;51.340;12.326;2023-04-26T02:09:22;100275.06;;;6.12;74.01
15998;BME280;8103;51.340;12.326;2023-04-26T02:11:50;100274.72;;;6.08;74.31
15998;BME280;8103;51.340;12.326;2023-04-26T02:14:17;100270.84;;;6.04;75.12
15998;BME280;8103;51.340;12.326;2023-04-26T02:16:44;100279.28;;;6.01;74.45
15998;BME280;8103;51.340;12.326;2023-04-26T02:19:11;100272.78;;;5.97;74.78
15998;BME280;8103;51.340;12.326;2023-04-26T02:21:53;100282.03;;;5.95;75.14
15998;BME280;8103;51.340;12.326;2023-04-26T02:24:21;100278.97;;;5.91;75.40
15998;BME280;8103;51.340;12.326;2023-04-26T02:26:49;100277.78;;;5.87;75.32
15998;BME280;8103;51.340;12.326;2023-04-26T02:41:33;100273.88;;;5.65;74.95
15998;BME280;8103;51.340;12.326;2023-04-26T02:44:00;100279.63;;;5.62;75.95
15998;BME280;8103;51.340;12.326;2023-04-26T02:46:27;100273.13;;;5.58;75.20
15998;BME280;8103;51.340;12.326;2023-04-26T02:48:53;100274.13;;;5.57;75.10
15998;BME280;8103;51.340;12.326;2023-04-26T02:51:23;100274.56;;;5.54;75.30
15998;BME280;8103;51.340;12.326;2023-04-26T02:53:50;100269.94;;;5.50;75.30
15998;BME280;8103;51.340;12.326;2023-04-26T02:56:17;100275.69;;;5.47;75.25
15998;BME280;8103;51.340;12.326;2023-04-26T02:58:45;100278.56;;;5.45;75.46
15998;BME280;8103;51.340;12.326;2023-04-26T03:01:12;100274.47;;;5.43;75.90
15998;BME280;8103;51.340;12.326;2023-04-26T03:03:41;100281.03;;;5.40;75.46
15998;BME280;8103;51.340;12.326;2023-04-26T03:06:08;100274.53;;;5.36;75.35
15998;BME280;8103;51.340;12.326;2023-04-26T03:08:35;100280.28;;;5.33;75.89
15998;BME280;8103;51.340;12.326;2023-04-26T03:11:02;100278.66;;;5.32;76.50
15998;BME280;8103;51.340;12.326;2023-04-26T03:13:30;100280.09;;;5.28;76.01
15998;BME280;8103;51.340;12.326;2023-04-26T03:15:57;100270.94;;;5.24;76.15
15998;BME280;8103;51.340;12.326;2023-04-26T03:18:24;100272.56;;;5.25;76.21
15998;BME280;8103;51.340;12.326;2023-04-26T03:20:51;100269.75;;;5.20;76.41
15998;BME280;8103;51.340;12.326;2023-04-26T03:23:18;100278.72;;;5.19;76.68
15998;BME280;8103;51.340;12.326;2023-04-26T03:25:45;100278.16;;;5.17;76.91
15998;BME280;8103;51.340;12.326;2023-04-26T03:28:12;100281.66;;;5.11;77.25
15998;BME280;8103;51.340;12.326;2023-04-26T03:30:39;100281.25;;;5.08;77.24
15998;BME280;8103;51.340;12.326;2023-04-26T03:33:06;100291.53;;;5.04;77.38
15998;BME280;8103;51.340;12.326;2023-04-26T03:35:33;100286.03;;;4.99;77.35
15998;BME280;8103;51.340;12.326;2023-04-26T03:38:00;100289.72;;;4.98;77.10
15998;BME280;8103;51.340;12.326;2023-04-26T03:40:28;100291.53;;;4.98;77.67
15998;BME280;8103;51.340;12.326;2023-04-26T03:42:55;100293.38;;;4.97;78.15
15998;BME280;8103;51.340;12.326;2023-04-26T03:45:22;100288.28;;;4.96;77.40
15998;BME280;8103;51.340;12.326;2023-04-26T03:47:50;100294.84;;;4.93;77.89
15998;BME280;8103;51.340;12.326;2023-04-26T03:50:17;100291.59;;;4.91;77.05
15998;BME280;8103;51.340;12.326;2023-04-26T03:52:44;100295.25;;;4.90;78.45
15998;BME280;8103;51.340;12.326;2023-04-26T03:55:11;100297.53;;;4.87;77.91
15998;BME280;8103;51.340;12.326;2023-04-26T03:57:38;100297.75;;;4.85;77.26
15998;BME280;8103;51.340;12.326;2023-04-26T04:00:07;100291.84;;;4.83;77.51
15998;BME280;8103;51.340;12.326;2023-04-26T04:02:37;100296.09;;;4.84;77.60
15998;BME280;8103;51.340;12.326;2023-04-26T04:05:04;100292.03;;;4.82;77.63
15998;BME280;8103;51.340;12.326;2023-04-26T04:07:31;100293.88;;;4.81;78.21
15998;BME280;8103;51.340;12.326;2023-04-26T04:10:00;100302.66;;;4.82;77.95
15998;BME280;8103;51.340;12.326;2023-04-26T04:12:27;100301.03;;;4.81;77.53
15998;BME280;8103;51.340;12.326;2023-04-26T04:14:57;100302.25;;;4.78;77.56
15998;BME280;8103;51.340;12.326;2023-04-26T04:17:24;100301.47;;;4.78;78.20
15998;BME280;8103;51.340;12.326;2023-04-26T04:19:50;100301.25;;;4.79;77.54
15998;BME280;8103;51.340;12.326;2023-04-26T04:22:17;100305.53;;;4.80;78.14
15998;BME280;8103;51.340;12.326;2023-04-26T04:24:44;100299.41;;;4.80;78.03
15998;BME280;8103;51.340;12.326;2023-04-26T04:27:13;100302.88;;;4.80;78.14
15998;BME280;8103;51.340;12.326;2023-04-26T04:29:40;100302.88;;;4.80;78.12
15998;BME280;8103;51.340;12.326;2023-04-26T04:32:07;100306.72;;;4.84;77.80
15998;BME280;8103;51.340;12.326;2023-04-26T04:34:34;100315.94;;;4.88;77.95
15998;BME280;8103;51.340;12.326;2023-04-26T04:37:05;100315.72;;;4.90;77.61
15998;BME280;8103;51.340;12.326;2023-04-26T04:39:31;100323.03;;;4.94;77.48
15998;BME280;8103;51.340;12.326;2023-04-26T04:41:58;100325.03;;;4.99;77.66
15998;BME280;8103;51.340;12.326;2023-04-26T04:44:25;100330.75;;;5.02;77.58
15998;BME280;8103;51.340;12.326;2023-04-26T04:46:53;100330.94;;;5.07;77.39
15998;BME280;8103;51.340;12.326;2023-04-26T04:49:20;100333.19;;;5.10;77.19
15998;BME280;8103;51.340;12.326;2023-04-26T04:51:49;100326.00;;;5.11;77.11
15998;BME280;8103;51.340;12.326;2023-04-26T04:54:17;100326.41;;;5.14;77.19
15998;BME280;8103;51.340;12.326;2023-04-26T04:56:45;100334.09;;;5.22;76.76
15998;BME280;8103;51.340;12.326;2023-04-26T04:59:15;100330.00;;;5.26;76.76
15998;BME280;8103;51.340;12.326;2023-04-26T05:01:42;100323.22;;;5.30;76.67
15998;BME280;8103;51.340;12.326;2023-04-26T05:04:09;100336.66;;;5.35;76.31
15998;BME280;8103;51.340;12.326;2023-04-26T05:06:37;100338.47;;;5.41;76.40
15998;BME280;8103;51.340;12.326;2023-04-26T05:09:04;100340.28;;;5.47;75.75
15998;BME280;8103;51.340;12.326;2023-04-26T05:11:31;100351.53;;;5.49;75.32
15998;BME280;8103;51.340;12.326;2023-04-26T05:14:00;100350.47;;;5.50;75.88
15998;BME280;8103;51.340;12.326;2023-04-26T05:16:27;100351.66;;;5.54;75.62
15998;BME280;8103;51.340;12.326;2023-04-26T05:18:54;100351.63;;;5.61;75.50
15998;BME280;8103;51.340;12.326;2023-04-26T05:21:21;100348.34;;;5.65;75.86
15998;BME280;8103;51.340;12.326;2023-04-26T05:23:49;100347.91;;;5.68;75.41
15998;BME280;8103;51.340;12.326;2023-04-26T05:26:16;100350.28;;;5.76;75.31
15998;BME280;8103;51.340;12.326;2023-04-26T05:28:43;100352.28;;;5.87;75.42
15998;BME280;8103;51.340;12.326;2023-04-26T05:31:11;100356.28;;;5.96;74.22
15998;BME280;8103;51.340;12.326;2023-04-26T05:33:38;100365.25;;;6.02;74.38
15998;BME280;8103;51.340;12.326;2023-04-26T05:36:05;100364.00;;;6.04;74.47
15998;BME280;8103;51.340;12.326;2023-04-26T05:38:32;100365.19;;;6.08;73.89
15998;BME280;8103;51.340;12.326;2023-04-26T05:40:59;100365.94;;;6.15;74.55
15998;BME280;8103;51.340;12.326;2023-04-26T05:43:30;100362.84;;;6.18;73.88
15998;BME280;8103;51.340;12.326;2023-04-26T05:45:57;100358.88;;;6.27;73.72
15998;BME280;8103;51.340;12.326;2023-04-26T05:48:24;100369.44;;;6.34;73.59
15998;BME280;8103;51.340;12.326;2023-04-26T05:50:52;100369.81;;;6.37;73.66
15998;BME280;8103;51.340;12.326;2023-04-26T05:53:22;100376.34;;;6.41;73.24
15998;BME280;8103;51.340;12.326;2023-04-26T05:55:48;100373.41;;;6.49;73.34
15998;BME280;8103;51.340;12.326;2023-04-26T05:58:18;100377.59;;;6.57;73.26
15998;BME280;8103;51.340;12.326;2023-04-26T06:00:45;100375.75;;;6.57;73.08
15998;BME280;8103;51.340;12.326;2023-04-26T06:03:13;100380.63;;;6.61;73.16
15998;BME280;8103;51.340;12.326;2023-04-26T06:05:40;100384.63;;;6.70;73.39
15998;BME280;8103;51.340;12.326;2023-04-26T06:08:08;100378.41;;;6.76;73.00
15998;BME280;8103;51.340;12.326;2023-04-26T06:10:35;100386.25;;;6.89;73.08
15998;BME280;8103;51.340;12.326;2023-04-26T06:13:03;100385.50;;;7.00;72.96
15998;BME280;8103;51.340;12.326;2023-04-26T06:15:30;100382.53;;;7.08;72.01
15998;BME280;8103;51.340;12.326;2023-04-26T06:17:57;100382.53;;;7.08;70.99
15998;BME280;8103;51.340;12.326;2023-04-26T06:20:25;100389.31;;;7.22;71.03
15998;BME280;8103;51.340;12.326;2023-04-26T06:22:51;100376.53;;;7.42;70.89
15998;BME280;8103;51.340;12.326;2023-04-26T06:25:21;100385.13;;;7.55;70.01
15998;BME280;8103;51.340;12.326;2023-04-26T06:27:48;100380.44;;;7.80;68.70
15998;BME280;8103;51.340;12.326;2023-04-26T06:30:15;100378.38;;;7.94;67.10
15998;BME280;8103;51.340;12.326;2023-04-26T06:32:45;100379.22;;;7.94;66.81
15998;BME280;8103;51.340;12.326;2023-04-26T06:35:12;100377.34;;;7.95;66.16
15998;BME280;8103;51.340;12.326;2023-04-26T06:37:39;100381.66;;;7.96;65.91
15998;BME280;8103;51.340;12.326;2023-04-26T06:40:07;100380.97;;;8.12;65.16
15998;BME280;8103;51.340;12.326;2023-04-26T06:42:34;100387.03;;;8.30;64.87
15998;BME280;8103;51.340;12.326;2023-04-26T06:45:01;100386.69;;;8.50;63.05
15998;BME280;8103;51.340;12.326;2023-04-26T06:47:27;100388.75;;;8.59;61.34
15998;BME280;8103;51.340;12.326;2023-04-26T06:49:54;100387.00;;;8.77;60.66
15998;BME280;8103;51.340;12.326;2023-04-26T06:52:23;100385.13;;;8.77;58.67
15998;BME280;8103;51.340;12.326;2023-04-26T06:54:51;100389.06;;;8.86;58.17
15998;BME280;8103;51.340;12.326;2023-04-26T06:57:28;100393.53;;;9.09;57.48
15998;BME280;8103;51.340;12.326;2023-04-26T06:59:56;100396.47;;;9.35;56.24
15998;BME280;8103;51.340;12.326;2023-04-26T07:02:25;100390.63;;;9.66;56.19
15998;BME280;8103;51.340;12.326;2023-04-26T07:04:52;100399.03;;;9.58;54.96
15998;BME280;8103;51.340;12.326;2023-04-26T07:07:19;100383.13;;;9.52;54.93
15998;BME280;8103;51.340;12.326;2023-04-26T07:09:46;100397.44;;;9.57;54.61
15998;BME280;8103;51.340;12.326;2023-04-26T07:12:13;100384.38;;;9.77;54.88
15998;BME280;8103;51.340;12.326;2023-04-26T07:14:41;100383.97;;;9.69;54.88
15998;BME280;8103;51.340;12.326;2023-04-26T07:17:09;100386.41;;;9.70;54.32
15998;BME280;8103;51.340;12.326;2023-04-26T07:19:36;100390.06;;;9.81;54.12
15998;BME280;8103;51.340;12.326;2023-04-26T07:22:04;100376.69;;;9.97;53.07
15998;BME280;8103;51.340;12.326;2023-04-26T07:24:31;100384.91;;;10.07;53.19
15998;BME280;8103;51.340;12.326;2023-04-26T07:26:59;100381.97;;;10.25;52.87
15998;BME280;8103;51.340;12.326;2023-04-26T07:29:26;100388.88;;;10.38;52.13
15998;BME280;8103;51.340;12.326;2023-04-26T07:31:53;100391.09;;;10.24;51.77
15998;BME280;8103;51.340;12.326;2023-04-26T07:34:20;100386.78;;;10.23;51.75
15998;BME280;8103;51.340;12.326;2023-04-26T07:36:47;100387.28;;;10.20;52.65
15998;BME280;8103;51.340;12.326;2023-04-26T07:39:14;100390.03;;;10.63;50.79
15998;BME280;8103;51.340;12.326;2023-04-26T07:41:41;100390.56;;;11.04;50.61
15998;BME280;8103;51.340;12.326;2023-04-26T07:44:10;100399.44;;;11.04;49.42
15998;BME280;8103;51.340;12.326;2023-04-26T07:46:37;100397.13;;;11.13;49.73
15998;BME280;8103;51.340;12.326;2023-04-26T07:49:04;100397.03;;;11.29;48.26
15998;BME280;8103;51.340;12.326;2023-04-26T07:51:31;100393.69;;;11.97;47.71
15998;BME280;8103;51.340;12.326;2023-04-26T07:54:01;100393.28;;;12.10;47.33
15998;BME280;8103;51.340;12.326;2023-04-26T07:56:28;100391.56;;;11.99;47.48
15998;BME280;8103;51.340;12.326;2023-04-26T07:58:55;100393.53;;;11.77;47.66
15998;BME280;8103;51.340;12.326;2023-04-26T08:01:22;100388.44;;;11.54;46.69
15998;BME280;8103;51.340;12.326;2023-04-26T08:03:49;100392.41;;;11.99;46.29
15998;BME280;8103;51.340;12.326;2023-04-26T08:06:16;99965.31;;;11.99;46.29
15998;BME280;8103;51.340;12.326;2023-04-26T08:08:43;79628.28;;;12.57;45.22
15998;BME280;8103;51.340;12.326;2023-04-26T08:11:15;100392.84;;;12.23;43.95
15998;BME280;8103;51.340;12.326;2023-04-26T08:13:42;100396.56;;;11.85;44.66
15998;BME280;8103;51.340;12.326;2023-04-26T08:16:10;100393.31;;;11.57;45.59
15998;BME280;8103;51.340;12.326;2023-04-26T08:18:37;100400.22;;;11.74;45.29
15998;BME280;8103;51.340;12.326;2023-04-26T08:21:04;100400.25;;;11.79;45.07
15998;BME280;8103;51.340;12.326;2023-04-26T08:23:35;100399.00;;;11.87;45.08
15998;BME280;8103;51.340;12.326;2023-04-26T08:26:02;100395.41;;;12.08;45.12
15998;BME280;8103;51.340;12.326;2023-04-26T08:28:29;100397.47;;;11.96;45.00
15998;BME280;8103;51.340;12.326;2023-04-26T08:30:56;100400.50;;;11.78;46.02
15998;BME280;8103;51.340;12.326;2023-04-26T08:33:24;100394.50;;;11.66;45.69
15998;BME280;8103;51.340;12.326;2023-04-26T08:35:51;100403.34;;;11.93;44.81
15998;BME280;8103;51.340;12.326;2023-04-26T08:38:18;100392.56;;;13.13;43.44
15998;BME280;8103;51.340;12.326;2023-04-26T08:45:17;100394.66;;;12.49;42.82
15998;BME280;8103;51.340;12.326;2023-04-26T08:50:19;100396.28;;;14.23;40.75
15998;BME280;8103;51.340;12.326;2023-04-26T08:52:50;100398.28;;;14.91;38.40
15998;BME280;8103;51.340;12.326;2023-04-26T08:55:18;100386.22;;;16.48;35.52
15998;BME280;8103;51.340;12.326;2023-04-26T08:57:49;100386.22;;;16.48;35.52
15998;BME280;8103;51.340;12.326;2023-04-26T09:00:17;100380.34;;;17.91;32.19
15998;BME280;8103;51.340;12.326;2023-04-26T09:02:48;100375.06;;;17.81;31.77
15998;BME280;8103;51.340;12.326;2023-04-26T09:05:18;100382.09;;;16.79;33.41
15998;BME280;8103;51.340;12.326;2023-04-26T09:07:53;100385.59;;;16.56;33.94
15998;BME280;8103;51.340;12.326;2023-04-26T09:10:22;100380.94;;;16.00;34.06
15998;BME280;8103;51.340;12.326;2023-04-26T09:12:52;100392.72;;;15.32;34.67
15998;BME280;8103;51.340;12.326;2023-04-26T09:15:25;100391.84;;;14.82;35.79
15998;BME280;8103;51.340;12.326;2023-04-26T09:17:53;100401.94;;;14.42;36.32
15998;BME280;8103;51.340;12.326;2023-04-26T09:20:28;100397.84;;;14.09;37.15
15998;BME280;8103;51.340;12.326;2023-04-26T09:23:07;100396.25;;;14.18;37.14
15998;BME280;8103;51.340;12.326;2023-04-26T09:25:36;100390.31;;;13.96;37.53
15998;BME280;8103;51.340;12.326;2023-04-26T09:28:18;100393.28;;;13.80;37.85
15998;BME280;8103;51.340;12.326;2023-04-26T09:30:45;100398.41;;;13.76;38.11
15998;BME280;8103;51.340;12.326;2023-04-26T09:33:12;100397.88;;;13.89;37.26
15998;BME280;8103;51.340;12.326;2023-04-26T09:35:42;100401.09;;;13.86;37.19
15998;BME280;8103;51.340;12.326;2023-04-26T09:38:27;100399.47;;;13.75;37.43
15998;BME280;8103;51.340;12.326;2023-04-26T09:40:53;100403.75;;;13.56;37.93
15998;BME280;8103;51.340;12.326;2023-04-26T09:43:24;100408.00;;;13.32;38.14
15998;BME280;8103;51.340;12.326;2023-04-26T09:45:55;100403.56;;;13.01;39.25
15998;BME280;8103;51.340;12.326;2023-04-26T09:48:27;100406.03;;;12.61;39.66
15998;BME280;8103;51.340;12.326;2023-04-26T09:51:07;100397.03;;;12.45;40.28
15998;BME280;8103;51.340;12.326;2023-04-26T09:53:39;100395.94;;;12.88;40.12
15998;BME280;8103;51.340;12.326;2023-04-26T09:56:15;100395.09;;;13.44;39.37
15998;BME280;8103;51.340;12.326;2023-04-26T09:58:58;100391.13;;;13.82;38.91
15998;BME280;8103;51.340;12.326;2023-04-26T10:01:27;100397.91;;;14.29;37.86
15998;BME280;8103;51.340;12.326;2023-04-26T10:03:58;100404.28;;;14.78;36.95
15998;BME280;8103;51.340;12.326;2023-04-26T10:06:27;100395.56;;;15.02;36.20
15998;BME280;8103;51.340;12.326;2023-04-26T10:08:54;100394.09;;;14.60;35.70
15998;BME280;8103;51.340;12.326;2023-04-26T10:11:25;100404.88;;;14.55;35.01
15998;BME280;8103;51.340;12.326;2023-04-26T10:14:02;100398.97;;;14.48;35.09
15998;BME280;8103;51.340;12.326;2023-04-26T10:16:30;100397.06;;;14.49;35.14
15998;BME280;8103;51.340;12.326;2023-04-26T10:18:58;100400.56;;;14.44;35.37
15998;BME280;8103;51.340;12.326;2023-04-26T10:21:32;100400.00;;;14.67;35.37
15998;BME280;8103;51.340;12.326;2023-04-26T10:24:01;100396.69;;;14.85;34.74
15998;BME280;8103;51.340;12.326;2023-04-26T10:26:52;100392.75;;;15.27;34.29
15998;BME280;8103;51.340;12.326;2023-04-26T10:29:24;100389.75;;;16.15;32.86
15998;BME280;8103;51.340;12.326;2023-04-26T10:32:04;100390.66;;;17.10;30.60
15998;BME280;8103;51.340;12.326;2023-04-26T10:34:35;100388.22;;;17.32;29.87
15998;BME280;8103;51.340;12.326;2023-04-26T10:37:16;100395.59;;;17.50;29.88
15998;BME280;8103;51.340;12.326;2023-04-26T10:39:45;100392.31;;;17.11;30.36
15998;BME280;8103;51.340;12.326;2023-04-26T10:42:26;100384.00;;;16.22;31.55
15998;BME280;8103;51.340;12.326;2023-04-26T10:44:58;100388.06;;;15.47;32.78
15998;BME280;8103;51.340;12.326;2023-04-26T10:47:34;100388.88;;;14.84;34.10
15998;BME280;8103;51.340;12.326;2023-04-26T10:50:12;100400.53;;;14.64;34.65
15998;BME280;8103;51.340;12.326;2023-04-26T10:55:42;100399.50;;;14.10;36.08
15998;BME280;8103;51.340;12.326;2023-04-26T10:58:32;100398.97;;;14.38;35.20
15998;BME280;8103;51.340;12.326;2023-04-26T11:01:20;100399.94;;;14.82;34.35
15998;BME280;8103;51.340;12.326;2023-04-26T11:06:26;100392.97;;;15.84;32.76
15998;BME280;8103;51.340;12.326;2023-04-26T11:09:38;100393.97;;;18.18;29.60
15998;BME280;8103;51.340;12.326;2023-04-26T11:12:11;100389.50;;;17.95;29.23
15998;BME280;8103;51.340;12.326;2023-04-26T11:14:41;100387.38;;;17.13;30.74
15998;BME280;8103;51.340;12.326;2023-04-26T11:17:10;100387.78;;;16.54;31.63
15998;BME280;8103;51.340;12.326;2023-04-26T11:19:41;100381.44;;;15.73;32.68
15998;BME280;8103;51.340;12.326;2023-04-26T11:22:08;100394.94;;;15.25;33.31
15998;BME280;8103;51.340;12.326;2023-04-26T11:24:35;100397.50;;;14.86;33.63
15998;BME280;8103;51.340;12.326;2023-04-26T11:27:10;100387.84;;;14.70;34.34
15998;BME280;8103;51.340;12.326;2023-04-26T11:29:39;100388.69;;;14.50;34.91
15998;BME280;8103;51.340;12.326;2023-04-26T11:32:07;100394.09;;;14.20;34.45
15998;BME280;8103;51.340;12.326;2023-04-26T11:34:36;100384.94;;;14.01;34.75
15998;BME280;8103;51.340;12.326;2023-04-26T11:37:05;100390.09;;;14.28;34.38
15998;BME280;8103;51.340;12.326;2023-04-26T11:39:35;100387.84;;;14.75;33.56
15998;BME280;8103;51.340;12.326;2023-04-26T11:42:08;100381.06;;;14.77;33.18
15998;BME280;8103;51.340;12.326;2023-04-26T11:44:37;100388.69;;;14.55;33.67
15998;BME280;8103;51.340;12.326;2023-04-26T11:47:08;100391.19;;;15.16;33.36
15998;BME280;8103;51.340;12.326;2023-04-26T11:49:36;100391.47;;;16.01;32.77
15998;BME280;8103;51.340;12.326;2023-04-26T11:52:05;100375.00;;;16.60;31.83
15998;BME280;8103;51.340;12.326;2023-04-26T11:54:34;100377.50;;;16.80;31.59
15998;BME280;8103;51.340;12.326;2023-04-26T11:57:13;100379.94;;;16.53;31.83
15998;BME280;8103;51.340;12.326;2023-04-26T11:59:44;100395.59;;;15.55;32.35
15998;BME280;8103;51.340;12.326;2023-04-26T12:02:11;100392.38;;;14.89;34.08
15998;BME280;8103;51.340;12.326;2023-04-26T12:04:39;100388.19;;;14.38;35.36
15998;BME280;8103;51.340;12.326;2023-04-26T12:07:07;100391.38;;;14.15;36.05
15998;BME280;8103;51.340;12.326;2023-04-26T12:09:34;100374.16;;;14.11;36.43
15998;BME280;8103;51.340;12.326;2023-04-26T12:12:06;100383.06;;;14.32;35.99
15998;BME280;8103;51.340;12.326;2023-04-26T12:14:38;100387.94;;;14.25;35.44
15998;BME280;8103;51.340;12.326;2023-04-26T12:17:06;100387.06;;;14.09;35.72
15998;BME280;8103;51.340;12.326;2023-04-26T12:23:38;100384.91;;;13.76;35.88
15998;BME280;8103;51.340;12.326;2023-04-26T12:26:06;100382.22;;;13.71;36.25
15998;BME280;8103;51.340;12.326;2023-04-26T12:28:33;100391.13;;;13.77;35.93
15998;BME280;8103;51.340;12.326;2023-04-26T12:30:59;100389.75;;;13.84;35.95
15998;BME280;8103;51.340;12.326;2023-04-26T12:33:29;100391.66;;;13.79;35.87
15998;BME280;8103;51.340;12.326;2023-04-26T12:35:56;100391.34;;;13.65;36.03
15998;BME280;8103;51.340;12.326;2023-04-26T12:38:25;100389.75;;;13.69;36.16
15998;BME280;8103;51.340;12.326;2023-04-26T12:44:59;100385.47;;;14.03;34.84
15998;BME280;8103;51.340;12.326;2023-04-26T12:47:26;100380.06;;;14.03;34.99
15998;BME280;8103;51.340;12.326;2023-04-26T12:49:53;100382.22;;;14.41;34.68
15998;BME280;8103;51.340;12.326;2023-04-26T12:52:20;100383.25;;;14.65;34.45
15998;BME280;8103;51.340;12.326;2023-04-26T12:54:47;100385.34;;;14.88;34.04
15998;BME280;8103;51.340;12.326;2023-04-26T12:57:14;100378.22;;;15.18;32.64
15998;BME280;8103;51.340;12.326;2023-04-26T12:59:41;100389.94;;;15.52;31.82
15998;BME280;8103;51.340;12.326;2023-04-26T13:02:08;100382.34;;;16.83;30.02
15998;BME280;8103;51.340;12.326;2023-04-26T13:04:36;100385.50;;;16.66;29.58
15998;BME280;8103;51.340;12.326;2023-04-26T13:11:13;100388.16;;;15.76;30.93
15998;BME280;8103;51.340;12.326;2023-04-26T13:13:40;100390.84;;;15.27;31.47
15998;BME280;8103;51.340;12.326;2023-04-26T13:16:10;100388.13;;;14.73;32.61
15998;BME280;8103;51.340;12.326;2023-04-26T13:18:38;100389.53;;;14.41;33.21
15998;BME280;8103;51.340;12.326;2023-04-26T13:21:05;100385.72;;;14.52;33.34
15998;BME280;8103;51.340;12.326;2023-04-26T13:23:32;100392.66;;;14.83;32.54
15998;BME280;8103;51.340;12.326;2023-04-26T13:25:59;100388.38;;;15.84;31.38
15998;BME280;8103;51.340;12.326;2023-04-26T13:28:29;100392.59;;;17.89;28.97
15998;BME280;8103;51.340;12.326;2023-04-26T13:30:56;100385.97;;;19.76;26.85
15998;BME280;8103;51.340;12.326;2023-04-26T13:33:22;100382.53;;;20.50;25.44
15998;BME280;8103;51.340;12.326;2023-04-26T13:35:50;100388.59;;;19.81;25.75
15998;BME280;8103;51.340;12.326;2023-04-26T13:38:16;100387.50;;;18.92;26.22
15998;BME280;8103;51.340;12.326;2023-04-26T13:40:45;100387.53;;;17.82;27.71